sensor_id;sensor_type;location;lat;lon;timestamp;temperature;humidity
38860;DHT22;24609;48.316;16.174;2023-07-08T00:00:38;14.00;99.90
38860;DHT22;24609;48.316;16.174;2023-07-08T00:03:03;13.70;99.90
38860;DHT22;24609;48.316;16.174;2023-07-08T00:05:29;13.70;99.90
38860;DHT22;24609;48.316;16.174;2023-07-08T00:07:55;13.60;99.90
38860;DHT22;24609;48.316;16.174;2023-07-08T00:10:24;13.60;99.90
38860;DHT22;24609;48.316;16.174;2023-07-08T00:12:51;13.60;99.90
38860;DHT22;24609;48.316;16.174;2023-07-08T00:15:24;13.60;99.90
38860;DHT22;24609;48.316;16.174;2023-07-08T00:17:50;13.60;99.90
38860;DHT22;24609;48.316;16.174;2023-07-08T00:20:39;13.50;99.90
38860;DHT22;24609;48.316;16.174;2023-07-08T00:23:05;13.50;99.90
38860;DHT22;24609;48.316;16.174;2023-07-08T00:25:32;13.50;99.90
38860;DHT22;24609;48.316;16.174;2023-07-08T00:27:58;13.40;99.90
38860;DHT22;24609;48.316;16.174;2023-07-08T00:30:26;13.50;99.90
38860;DHT22;24609;48.316;16.174;2023-07-08T00:32:53;13.40;99.90
38860;DHT22;24609;48.316;16.174;2023-07-08T00:35:34;13.50;99.90
38860;DHT22;24609;48.316;16.174;2023-07-08T00:38:01;13.40;99.90
38860;DHT22;24609;48.316;16.174;2023-07-08T00:40:29;13.50;99.90
38860;DHT22;24609;48.316;16.174;2023-07-08T00:42:57;13.50;99.90
38860;DHT22;24609;48.316;16.174;2023-07-08T00:45:40;13.50;99.90
38860;DHT22;24609;48.316;16.174;2023-07-08T00:48:39;13.50;99.90
38860;DHT22;24609;48.316;16.174;2023-07-08T00:51:08;13.50;99.90
38860;DHT22;24609;48.316;16.174;2023-07-08T00:53:36;13.50;99.90
38860;DHT22;24609;48.316;16.174;2023-07-08T01:01:21;13.40;99.90
38860;DHT22;24609;48.316;16.174;2023-07-08T01:03:54;13.40;99.90
38860;DHT22;24609;48.316;16.174;2023-07-08T01:06:22;13.30;99.90
38860;DHT22;24609;48.316;16.174;2023-07-08T01:08:49;13.30;99.90
38860;DHT22;24609;48.316;16.174;2023-07-08T01:11:20;13.30;99.90
38860;DHT22;24609;48.316;16.174;2023-07-08T01:13:48;13.30;99.90
38860;DHT22;24609;48.316;16.174;2023-07-08T01:16:16;13.20;99.90
38860;DHT22;24609;48.316;16.174;2023-07-08T01:18:42;13.30;99.90
38860;DHT22;24609;48.316;16.174;2023-07-08T01:21:35;13.20;99.90
38860;DHT22;24609;48.316;16.174;2023-07-08T01:24:05;13.20;99.90
38860;DHT22;24609;48.316;16.174;2023-07-08T01:26:34;13.10;99.90
38860;DHT22;24609;48.316;16.174;2023-07-08T01:29:01;13.10;99.90
38860;DHT22;24609;48.316;16.174;2023-07-08T01:31:28;13.10;99.90
38860;DHT22;24609;48.316;16.174;2023-07-08T01:33:54;12.90;99.90
38860;DHT22;24609;48.316;16.174;2023-07-08T01:36:20;12.80;99.90
38860;DHT22;24609;48.316;16.174;2023-07-08T01:38:46;12.80;99.90
38860;DHT22;24609;48.316;16.174;2023-07-08T01:41:13;12.70;99.90
38860;DHT22;24609;48.316;16.174;2023-07-08T01:43:39;12.70;99.90
38860;DHT22;24609;48.316;16.174;2023-07-08T01:46:11;12.60;99.90
38860;DHT22;24609;48.316;16.174;2023-07-08T01:48:40;12.50;99.90
38860;DHT22;24609;48.316;16.174;2023-07-08T01:51:07;12.50;99.90
38860;DHT22;24609;48.316;16.174;2023-07-08T01:53:38;12.50;99.90
38860;DHT22;24609;48.316;16.174;2023-07-08T01:56:06;12.50;99.90
38860;DHT22;24609;48.316;16.174;2023-07-08T01:58:31;12.50;99.90
38860;DHT22;24609;48.316;16.174;2023-07-08T02:00:57;12.50;99.90
38860;DHT22;24609;48.316;16.174;2023-07-08T02:03:23;12.40;99.90
38860;DHT22;24609;48.316;16.174;2023-07-08T02:05:49;12.50;99.90
38860;DHT22;24609;48.316;16.174;2023-07-08T02:08:15;12.50;99.90
38860;DHT22;24609;48.316;16.174;2023-07-08T02:10:42;12.50;99.90
38860;DHT22;24609;48.316;16.174;2023-07-08T02:13:08;12.40;99.90
38860;DHT22;24609;48.316;16.174;2023-07-08T02:15:34;12.30;99.90
38860;DHT22;24609;48.316;16.174;2023-07-08T02:18:00;12.30;99.90
38860;DHT22;24609;48.316;16.174;2023-07-08T02:20:25;12.20;99.90
38860;DHT22;24609;48.316;16.174;2023-07-08T02:22:51;12.10;99.90
38860;DHT22;24609;48.316;16.174;2023-07-08T02:25:17;12.00;99.90
38860;DHT22;24609;48.316;16.174;2023-07-08T02:27:43;12.00;99.90
38860;DHT22;24609;48.316;16.174;2023-07-08T02:30:09;12.00;99.90
38860;DHT22;24609;48.316;16.174;2023-07-08T02:32:35;11.90;99.90
38860;DHT22;24609;48.316;16.174;2023-07-08T02:35:08;11.90;99.90
38860;DHT22;24609;48.316;16.174;2023-07-08T02:37:34;11.90;99.90
38860;DHT22;24609;48.316;16.174;2023-07-08T02:40:00;11.90;99.90
38860;DHT22;24609;48.316;16.174;2023-07-08T02:42:26;11.90;99.90
38860;DHT22;24609;48.316;16.174;2023-07-08T02:44:52;11.90;99.90
38860;DHT22;24609;48.316;16.174;2023-07-08T02:47:17;11.90;99.90
38860;DHT22;24609;48.316;16.174;2023-07-08T02:49:43;11.90;99.90
38860;DHT22;24609;48.316;16.174;2023-07-08T02:52:09;11.90;99.90
38860;DHT22;24609;48.316;16.174;2023-07-08T02:54:35;11.90;99.90
38860;DHT22;24609;48.316;16.174;2023-07-08T02:57:00;11.90;99.90
38860;DHT22;24609;48.316;16.174;2023-07-08T02:59:26;11.80;99.90
38860;DHT22;24609;48.316;16.174;2023-07-08T03:01:53;11.70;99.90
38860;DHT22;24609;48.316;16.174;2023-07-08T03:04:19;11.70;99.90
38860;DHT22;24609;48.316;16.174;2023-07-08T03:06:49;11.70;99.90
38860;DHT22;24609;48.316;16.174;2023-07-08T03:09:15;11.80;99.90
38860;DHT22;24609;48.316;16.174;2023-07-08T03:11:41;11.80;99.90
38860;DHT22;24609;48.316;16.174;2023-07-08T03:14:07;11.70;99.90
38860;DHT22;24609;48.316;16.174;2023-07-08T03:16:33;11.80;99.90
38860;DHT22;24609;48.316;16.174;2023-07-08T03:18:58;11.80;99.90
38860;DHT22;24609;48.316;16.174;2023-07-08T03:21:24;11.80;99.90
38860;DHT22;24609;48.316;16.174;2023-07-08T03:23:51;11.80;99.90
38860;DHT22;24609;48.316;16.174;2023-07-08T03:26:26;11.80;99.90
38860;DHT22;24609;48.316;16.174;2023-07-08T03:28:52;11.80;99.90
38860;DHT22;24609;48.316;16.174;2023-07-08T03:31:18;11.80;99.90
38860;DHT22;24609;48.316;16.174;2023-07-08T03:33:45;11.90;99.90
38860;DHT22;24609;48.316;16.174;2023-07-08T03:36:16;11.90;99.90
38860;DHT22;24609;48.316;16.174;2023-07-08T03:38:56;12.10;99.90
38860;DHT22;24609;48.316;16.174;2023-07-08T03:41:22;12.10;99.90
38860;DHT22;24609;48.316;16.174;2023-07-08T03:43:48;12.20;99.90
38860;DHT22;24609;48.316;16.174;2023-07-08T03:46:17;12.20;99.90
38860;DHT22;24609;48.316;16.174;2023-07-08T03:48:43;12.40;99.90
38860;DHT22;24609;48.316;16.174;2023-07-08T03:51:24;12.40;99.90
38860;DHT22;24609;48.316;16.174;2023-07-08T03:53:50;12.60;99.90
38860;DHT22;24609;48.316;16.174;2023-07-08T03:56:17;12.80;99.90
38860;DHT22;24609;48.316;16.174;2023-07-08T03:58:42;12.80;99.90
38860;DHT22;24609;48.316;16.174;2023-07-08T04:01:16;12.80;99.90
38860;DHT22;24609;48.316;16.174;2023-07-08T04:03:42;12.90;99.90
38860;DHT22;24609;48.316;16.174;2023-07-08T04:06:08;13.00;99.90
38860;DHT22;24609;48.316;16.174;2023-07-08T04:08:34;13.00;99.90
38860;DHT22;24609;48.316;16.174;2023-07-08T04:11:00;12.90;99.90
38860;DHT22;24609;48.316;16.174;2023-07-08T04:13:25;12.90;99.90
38860;DHT22;24609;48.316;16.174;2023-07-08T04:15:57;13.00;99.90
38860;DHT22;24609;48.316;16.174;2023-07-08T04:18:23;13.20;99.90
38860;DHT22;24609;48.316;16.174;2023-07-08T04:20:49;13.40;99.90
38860;DHT22;24609;48.316;16.174;2023-07-08T04:23:21;13.60;99.90
38860;DHT22;24609;48.316;16.174;2023-07-08T04:25:49;13.80;99.90
38860;DHT22;24609;48.316;16.174;2023-07-08T04:28:15;14.00;99.90
38860;DHT22;24609;48.316;16.174;2023-07-08T04:30:42;14.20;99.90
38860;DHT22;24609;48.316;16.174;2023-07-08T04:33:09;14.30;99.90
38860;DHT22;24609;48.316;16.174;2023-07-08T04:35:36;14.50;99.90
38860;DHT22;24609;48.316;16.174;2023-07-08T04:38:07;14.80;99.90
38860;DHT22;24609;48.316;16.174;2023-07-08T04:40:37;15.10;99.90
38860;DHT22;24609;48.316;16.174;2023-07-08T04:43:08;15.40;99.90
38860;DHT22;24609;48.316;16.174;2023-07-08T04:45:36;15.90;99.90
38860;DHT22;24609;48.316;16.174;2023-07-08T04:48:03;16.80;99.90
38860;DHT22;24609;48.316;16.174;2023-07-08T04:50:41;17.40;99.90
38860;DHT22;24609;48.316;16.174;2023-07-08T04:53:07;17.30;99.90
38860;DHT22;24609;48.316;16.174;2023-07-08T04:55:33;17.00;99.90
38860;DHT22;24609;48.316;16.174;2023-07-08T04:57:59;16.80;99.90
38860;DHT22;24609;48.316;16.174;2023-07-08T05:00:24;16.90;99.90
38860;DHT22;24609;48.316;16.174;2023-07-08T05:02:50;17.20;99.90
38860;DHT22;24609;48.316;16.174;2023-07-08T05:05:16;17.40;99.90
38860;DHT22;24609;48.316;16.174;2023-07-08T05:07:42;17.70;99.90
38860;DHT22;24609;48.316;16.174;2023-07-08T05:10:07;17.60;99.90
38860;DHT22;24609;48.316;16.174;2023-07-08T05:12:33;17.80;99.90
38860;DHT22;24609;48.316;16.174;2023-07-08T05:14:59;18.50;99.90
38860;DHT22;24609;48.316;16.174;2023-07-08T05:17:24;19.30;99.90
38860;DHT22;24609;48.316;16.174;2023-07-08T05:19:50;19.90;99.90
38860;DHT22;24609;48.316;16.174;2023-07-08T05:22:17;20.50;99.90
38860;DHT22;24609;48.316;16.174;2023-07-08T05:24:44;20.90;99.90
38860;DHT22;24609;48.316;16.174;2023-07-08T05:27:09;21.10;99.90
38860;DHT22;24609;48.316;16.174;2023-07-08T05:29:36;21.20;99.90
38860;DHT22;24609;48.316;16.174;2023-07-08T05:32:01;21.20;99.90
38860;DHT22;24609;48.316;16.174;2023-07-08T05:34:28;21.30;99.90
38860;DHT22;24609;48.316;16.174;2023-07-08T05:36:53;21.00;99.90
38860;DHT22;24609;48.316;16.174;2023-07-08T05:39:19;20.90;99.90
38860;DHT22;24609;48.316;16.174;2023-07-08T05:41:45;21.10;99.90
38860;DHT22;24609;48.316;16.174;2023-07-08T05:44:10;21.70;99.90
38860;DHT22;24609;48.316;16.174;2023-07-08T05:46:36;22.00;99.90
38860;DHT22;24609;48.316;16.174;2023-07-08T05:49:02;21.90;99.90
38860;DHT22;24609;48.316;16.174;2023-07-08T05:51:28;21.80;99.90
38860;DHT22;24609;48.316;16.174;2023-07-08T05:53:54;21.80;99.90
38860;DHT22;24609;48.316;16.174;2023-07-08T05:56:20;21.80;99.90
38860;DHT22;24609;48.316;16.174;2023-07-08T05:58:45;22.40;99.90
38860;DHT22;24609;48.316;16.174;2023-07-08T06:01:11;23.10;99.90
38860;DHT22;24609;48.316;16.174;2023-07-08T06:03:37;23.70;99.90
38860;DHT22;24609;48.316;16.174;2023-07-08T06:06:06;24.40;99.90
38860;DHT22;24609;48.316;16.174;2023-07-08T06:08:31;25.10;99.90
38860;DHT22;24609;48.316;16.174;2023-07-08T06:10:57;25.40;99.70
38860;DHT22;24609;48.316;16.174;2023-07-08T06:13:23;24.80;98.80
38860;DHT22;24609;48.316;16.174;2023-07-08T06:15:48;24.20;99.90
38860;DHT22;24609;48.316;16.174;2023-07-08T06:18:14;23.00;99.90
38860;DHT22;24609;48.316;16.174;2023-07-08T06:20:40;23.10;99.90
38860;DHT22;24609;48.316;16.174;2023-07-08T06:23:05;24.70;99.90
38860;DHT22;24609;48.316;16.174;2023-07-08T06:25:32;26.10;97.80
38860;DHT22;24609;48.316;16.174;2023-07-08T06:27:58;27.40;94.90
38860;DHT22;24609;48.316;16.174;2023-07-08T06:30:23;27.30;92.50
38860;DHT22;24609;48.316;16.174;2023-07-08T06:32:49;27.80;91.10
38860;DHT22;24609;48.316;16.174;2023-07-08T06:35:15;27.40;89.10
38860;DHT22;24609;48.316;16.174;2023-07-08T06:37:41;27.60;89.00
38860;DHT22;24609;48.316;16.174;2023-07-08T06:40:07;28.20;85.00
38860;DHT22;24609;48.316;16.174;2023-07-08T06:42:33;29.30;84.00
38860;DHT22;24609;48.316;16.174;2023-07-08T06:44:59;30.20;75.00
38860;DHT22;24609;48.316;16.174;2023-07-08T06:47:25;31.00;70.60
38860;DHT22;24609;48.316;16.174;2023-07-08T06:49:50;30.90;67.40
38860;DHT22;24609;48.316;16.174;2023-07-08T06:52:16;31.20;62.70
38860;DHT22;24609;48.316;16.174;2023-07-08T06:54:42;30.50;64.10
38860;DHT22;24609;48.316;16.174;2023-07-08T06:57:07;29.60;63.20
38860;DHT22;24609;48.316;16.174;2023-07-08T06:59:33;28.50;67.30
38860;DHT22;24609;48.316;16.174;2023-07-08T07:01:59;27.80;71.70
38860;DHT22;24609;48.316;16.174;2023-07-08T07:04:25;28.00;69.80
38860;DHT22;24609;48.316;16.174;2023-07-08T07:06:50;28.60;66.30
38860;DHT22;24609;48.316;16.174;2023-07-08T07:09:16;28.80;63.60
38860;DHT22;24609;48.316;16.174;2023-07-08T07:11:41;28.60;66.20
38860;DHT22;24609;48.316;16.174;2023-07-08T07:14:07;29.10;68.70
38860;DHT22;24609;48.316;16.174;2023-07-08T07:16:34;29.60;66.90
38860;DHT22;24609;48.316;16.174;2023-07-08T07:18:59;30.10;65.80
38860;DHT22;24609;48.316;16.174;2023-07-08T07:21:25;29.80;61.30
38860;DHT22;24609;48.316;16.174;2023-07-08T07:23:51;29.80;61.60
38860;DHT22;24609;48.316;16.174;2023-07-08T07:26:16;29.10;58.80
38860;DHT22;24609;48.316;16.174;2023-07-08T07:28:42;29.00;60.10
38860;DHT22;24609;48.316;16.174;2023-07-08T07:31:08;29.00;58.70
38860;DHT22;24609;48.316;16.174;2023-07-08T07:33:36;28.60;61.00
38860;DHT22;24609;48.316;16.174;2023-07-08T07:36:02;27.80;61.50
38860;DHT22;24609;48.316;16.174;2023-07-08T07:38:29;27.40;62.30
38860;DHT22;24609;48.316;16.174;2023-07-08T07:40:56;27.80;65.60
38860;DHT22;24609;48.316;16.174;2023-07-08T07:43:22;27.80;62.60
38860;DHT22;24609;48.316;16.174;2023-07-08T07:45:52;28.10;60.70
38860;DHT22;24609;48.316;16.174;2023-07-08T07:48:18;27.90;62.10
38860;DHT22;24609;48.316;16.174;2023-07-08T07:50:46;28.10;61.60
38860;DHT22;24609;48.316;16.174;2023-07-08T07:53:12;28.40;63.80
38860;DHT22;24609;48.316;16.174;2023-07-08T07:55:38;28.30;59.30
38860;DHT22;24609;48.316;16.174;2023-07-08T07:58:03;27.60;60.40
38860;DHT22;24609;48.316;16.174;2023-07-08T08:00:30;27.40;59.60
38860;DHT22;24609;48.316;16.174;2023-07-08T08:02:56;27.60;62.80
38860;DHT22;24609;48.316;16.174;2023-07-08T08:05:22;28.00;59.20
38860;DHT22;24609;48.316;16.174;2023-07-08T08:07:47;28.70;59.60
38860;DHT22;24609;48.316;16.174;2023-07-08T08:10:14;30.30;58.20
38860;DHT22;24609;48.316;16.174;2023-07-08T08:12:40;30.00;56.10
38860;DHT22;24609;48.316;16.174;2023-07-08T08:15:06;30.90;55.40
38860;DHT22;24609;48.316;16.174;2023-07-08T08:17:32;31.30;55.10
38860;DHT22;24609;48.316;16.174;2023-07-08T08:19:57;31.50;53.60
38860;DHT22;24609;48.316;16.174;2023-07-08T08:22:23;32.50;51.30
38860;DHT22;24609;48.316;16.174;2023-07-08T08:24:49;32.20;48.40
38860;DHT22;24609;48.316;16.174;2023-07-08T08:27:15;31.90;48.50
38860;DHT22;24609;48.316;16.174;2023-07-08T08:29:41;32.20;47.80
38860;DHT22;24609;48.316;16.174;2023-07-08T08:32:07;31.90;48.30
38860;DHT22;24609;48.316;16.174;2023-07-08T08:34:33;32.20;48.10
38860;DHT22;24609;48.316;16.174;2023-07-08T08:36:58;33.20;47.60
38860;DHT22;24609;48.316;16.174;2023-07-08T08:39:24;34.20;45.00
38860;DHT22;24609;48.316;16.174;2023-07-08T08:41:54;33.60;45.10
38860;DHT22;24609;48.316;16.174;2023-07-08T08:44:28;33.10;43.60
38860;DHT22;24609;48.316;16.174;2023-07-08T08:46:57;33.50;42.50
38860;DHT22;24609;48.316;16.174;2023-07-08T08:49:32;32.80;41.70
38860;DHT22;24609;48.316;16.174;2023-07-08T08:52:02;32.90;42.10
38860;DHT22;24609;48.316;16.174;2023-07-08T08:54:29;32.60;41.80
38860;DHT22;24609;48.316;16.174;2023-07-08T08:57:34;32.10;42.50
38860;DHT22;24609;48.316;16.174;2023-07-08T09:00:01;32.50;42.80
38860;DHT22;24609;48.316;16.174;2023-07-08T09:05:16;35.90;39.50
38860;DHT22;24609;48.316;16.174;2023-07-08T09:13:40;36.60;36.00
38860;DHT22;24609;48.316;16.174;2023-07-08T09:16:54;37.30;34.50
38860;DHT22;24609;48.316;16.174;2023-07-08T09:19:09;35.80;34.20
38860;DHT22;24609;48.316;16.174;2023-07-08T09:24:18;35.80;34.30
38860;DHT22;24609;48.316;16.174;2023-07-08T09:26:47;36.40;32.00
38860;DHT22;24609;48.316;16.174;2023-07-08T09:29:13;36.40;32.30
38860;DHT22;24609;48.316;16.174;2023-07-08T09:31:39;35.90;32.50
38860;DHT22;24609;48.316;16.174;2023-07-08T09:34:20;36.80;30.90
38860;DHT22;24609;48.316;16.174;2023-07-08T09:36:49;36.70;31.20
38860;DHT22;24609;48.316;16.174;2023-07-08T09:39:17;38.00;31.00
38860;DHT22;24609;48.316;16.174;2023-07-08T09:41:45;38.70;29.30
38860;DHT22;24609;48.316;16.174;2023-07-08T09:46:48;39.40;28.20
38860;DHT22;24609;48.316;16.174;2023-07-08T09:49:19;38.60;25.90
38860;DHT22;24609;48.316;16.174;2023-07-08T09:51:46;37.10;27.20
38860;DHT22;24609;48.316;16.174;2023-07-08T09:54:12;36.20;27.80
38860;DHT22;24609;48.316;16.174;2023-07-08T09:56:59;37.50;27.80
38860;DHT22;24609;48.316;16.174;2023-07-08T09:59:39;38.60;26.00
38860;DHT22;24609;48.316;16.174;2023-07-08T10:02:41;39.40;25.60
38860;DHT22;24609;48.316;16.174;2023-07-08T10:07:38;40.80;22.90
38860;DHT22;24609;48.316;16.174;2023-07-08T10:10:08;40.40;22.10
38860;DHT22;24609;48.316;16.174;2023-07-08T10:12:37;41.40;23.00
38860;DHT22;24609;48.316;16.174;2023-07-08T10:15:18;40.90;22.30
38860;DHT22;24609;48.316;16.174;2023-07-08T10:17:46;39.80;22.80
38860;DHT22;24609;48.316;16.174;2023-07-08T10:20:13;39.70;23.70
38860;DHT22;24609;48.316;16.174;2023-07-08T10:23:15;41.30;22.10
38860;DHT22;24609;48.316;16.174;2023-07-08T10:25:49;38.80;22.10
38860;DHT22;24609;48.316;16.174;2023-07-08T10:28:28;37.60;24.40
38860;DHT22;24609;48.316;16.174;2023-07-08T10:31:16;36.80;23.80
38860;DHT22;24609;48.316;16.174;2023-07-08T10:34:14;39.40;24.00
38860;DHT22;24609;48.316;16.174;2023-07-08T10:45:46;42.00;18.30
38860;DHT22;24609;48.316;16.174;2023-07-08T11:04:50;42.90;18.60
38860;DHT22;24609;48.316;16.174;2023-07-08T11:07:28;43.30;19.00
38860;DHT22;24609;48.316;16.174;2023-07-08T11:09:59;42.90;17.40
38860;DHT22;24609;48.316;16.174;2023-07-08T11:13:19;43.70;16.50
38860;DHT22;24609;48.316;16.174;2023-07-08T11:15:45;43.60;16.60
38860;DHT22;24609;48.316;16.174;2023-07-08T11:18:25;44.10;16.60
38860;DHT22;24609;48.316;16.174;2023-07-08T11:21:05;45.00;16.00
38860;DHT22;24609;48.316;16.174;2023-07-08T11:23:52;41.20;17.50
38860;DHT22;24609;48.316;16.174;2023-07-08T11:26:44;41.40;19.40
38860;DHT22;24609;48.316;16.174;2023-07-08T11:29:29;43.60;16.70
38860;DHT22;24609;48.316;16.174;2023-07-08T11:31:58;44.50;17.80
38860;DHT22;24609;48.316;16.174;2023-07-08T11:34:24;44.10;17.10
38860;DHT22;24609;48.316;16.174;2023-07-08T11:36:51;43.90;17.20
38860;DHT22;24609;48.316;16.174;2023-07-08T11:39:31;42.90;17.60
38860;DHT22;24609;48.316;16.174;2023-07-08T11:42:23;43.70;16.50
38860;DHT22;24609;48.316;16.174;2023-07-08T11:44:55;46.20;15.80
38860;DHT22;24609;48.316;16.174;2023-07-08T11:47:40;44.10;15.00
38860;DHT22;24609;48.316;16.174;2023-07-08T11:50:29;40.70;18.70
38860;DHT22;24609;48.316;16.174;2023-07-08T11:52:58;43.40;16.30
38860;DHT22;24609;48.316;16.174;2023-07-08T11:58:23;44.10;15.60
38860;DHT22;24609;48.316;16.174;2023-07-08T12:03:47;42.60;16.40
38860;DHT22;24609;48.316;16.174;2023-07-08T12:09:00;41.70;16.50
38860;DHT22;24609;48.316;16.174;2023-07-08T12:11:43;38.00;18.40
38860;DHT22;24609;48.316;16.174;2023-07-08T12:14:09;39.40;19.30
38860;DHT22;24609;48.316;16.174;2023-07-08T12:16:35;39.80;19.80
38860;DHT22;24609;48.316;16.174;2023-07-08T12:19:02;41.00;18.90
38860;DHT22;24609;48.316;16.174;2023-07-08T12:21:30;41.10;17.10
38860;DHT22;24609;48.316;16.174;2023-07-08T12:24:03;41.40;18.10
38860;DHT22;24609;48.316;16.174;2023-07-08T12:26:29;40.50;16.80
38860;DHT22;24609;48.316;16.174;2023-07-08T12:28:56;41.00;17.50
38860;DHT22;24609;48.316;16.174;2023-07-08T12:31:23;42.50;16.90
38860;DHT22;24609;48.316;16.174;2023-07-08T12:33:50;42.20;17.10
38860;DHT22;24609;48.316;16.174;2023-07-08T12:36:19;41.70;18.10
38860;DHT22;24609;48.316;16.174;2023-07-08T12:38:46;40.40;18.10
38860;DHT22;24609;48.316;16.174;2023-07-08T12:43:44;42.70;16.80
38860;DHT22;24609;48.316;16.174;2023-07-08T12:46:11;40.20;16.50
38860;DHT22;24609;48.316;16.174;2023-07-08T12:48:39;39.90;17.00
38860;DHT22;24609;48.316;16.174;2023-07-08T12:51:10;42.50;17.60
38860;DHT22;24609;48.316;16.174;2023-07-08T12:53:36;43.20;17.10
38860;DHT22;24609;48.316;16.174;2023-07-08T12:56:02;43.40;16.60
38860;DHT22;24609;48.316;16.174;2023-07-08T12:58:33;41.90;17.10
38860;DHT22;24609;48.316;16.174;2023-07-08T13:01:02;41.60;17.80
38860;DHT22;24609;48.316;16.174;2023-07-08T13:03:31;41.80;17.30
38860;DHT22;24609;48.316;16.174;2023-07-08T13:05:59;41.60;18.30
38860;DHT22;24609;48.316;16.174;2023-07-08T13:08:30;41.60;17.70
38860;DHT22;24609;48.316;16.174;2023-07-08T13:11:00;43.40;16.40
38860;DHT22;24609;48.316;16.174;2023-07-08T13:13:30;45.40;15.70
38860;DHT22;24609;48.316;16.174;2023-07-08T13:15:57;43.90;15.30
38860;DHT22;24609;48.316;16.174;2023-07-08T13:18:43;44.20;15.40
38860;DHT22;24609;48.316;16.174;2023-07-08T13:21:13;43.90;16.10
38860;DHT22;24609;48.316;16.174;2023-07-08T13:23:39;41.90;17.30
38860;DHT22;24609;48.316;16.174;2023-07-08T13:26:26;40.80;17.90
38860;DHT22;24609;48.316;16.174;2023-07-08T13:29:21;39.90;18.20
38860;DHT22;24609;48.316;16.174;2023-07-08T13:31:52;40.40;18.90
38860;DHT22;24609;48.316;16.174;2023-07-08T13:34:19;41.30;17.30
38860;DHT22;24609;48.316;16.174;2023-07-08T13:36:49;42.60;16.80
38860;DHT22;24609;48.316;16.174;2023-07-08T13:39:24;42.50;16.00
38860;DHT22;24609;48.316;16.174;2023-07-08T13:41:52;42.90;16.40
38860;DHT22;24609;48.316;16.174;2023-07-08T13:44:17;43.30;15.10
38860;DHT22;24609;48.316;16.174;2023-07-08T13:46:52;43.50;15.40
38860;DHT22;24609;48.316;16.174;2023-07-08T13:49:40;42.40;16.10
38860;DHT22;24609;48.316;16.174;2023-07-08T13:54:52;41.70;16.30
38860;DHT22;24609;48.316;16.174;2023-07-08T13:57:21;40.40;17.60
38860;DHT22;24609;48.316;16.174;2023-07-08T13:59:48;42.20;16.70
38860;DHT22;24609;48.316;16.174;2023-07-08T14:02:19;42.00;15.60
38860;DHT22;24609;48.316;16.174;2023-07-08T14:04:46;43.20;16.10
38860;DHT22;24609;48.316;16.174;2023-07-08T14:07:16;42.10;14.60
38860;DHT22;24609;48.316;16.174;2023-07-08T14:09:43;41.00;16.20
38860;DHT22;24609;48.316;16.174;2023-07-08T14:12:09;40.30;17.50
38860;DHT22;24609;48.316;16.174;2023-07-08T14:14:34;40.30;15.80
38860;DHT22;24609;48.316;16.174;2023-07-08T14:17:00;42.00;16.20
38860;DHT22;24609;48.316;16.174;2023-07-08T14:19:29;41.00;15.40
38860;DHT22;24609;48.316;16.174;2023-07-08T14:24:42;34.10;20.30
38860;DHT22;24609;48.316;16.174;2023-07-08T14:27:10;33.60;21.30
38860;DHT22;24609;48.316;16.174;2023-07-08T14:29:41;34.90;20.70
38860;DHT22;24609;48.316;16.174;2023-07-08T14:34:52;35.40;20.60
38860;DHT22;24609;48.316;16.174;2023-07-08T14:37:19;35.10;20.60
38860;DHT22;24609;48.316;16.174;2023-07-08T14:39:45;35.30;20.50
38860;DHT22;24609;48.316;16.174;2023-07-08T14:42:16;35.60;20.60
38860;DHT22;24609;48.316;16.174;2023-07-08T14:44:44;37.10;20.30
38860;DHT22;24609;48.316;16.174;2023-07-08T14:47:13;37.60;19.50
38860;DHT22;24609;48.316;16.174;2023-07-08T14:49:39;38.90;18.10
38860;DHT22;24609;48.316;16.174;2023-07-08T14:52:06;40.50;17.60
38860;DHT22;24609;48.316;16.174;2023-07-08T14:54:34;40.90;15.90
38860;DHT22;24609;48.316;16.174;2023-07-08T14:57:01;41.40;16.70
38860;DHT22;24609;48.316;16.174;2023-07-08T14:59:30;41.20;16.50
38860;DHT22;24609;48.316;16.174;2023-07-08T15:01:58;40.90;16.60
38860;DHT22;24609;48.316;16.174;2023-07-08T15:04:24;41.40;15.80
38860;DHT22;24609;48.316;16.174;2023-07-08T15:06:50;42.40;15.90
38860;DHT22;24609;48.316;16.174;2023-07-08T15:09:17;42.70;15.40
38860;DHT22;24609;48.316;16.174;2023-07-08T15:11:43;42.40;15.60
38860;DHT22;24609;48.316;16.174;2023-07-08T15:14:23;41.60;16.00
38860;DHT22;24609;48.316;16.174;2023-07-08T15:16:50;40.30;17.10
38860;DHT22;24609;48.316;16.174;2023-07-08T15:19:16;39.10;17.80
38860;DHT22;24609;48.316;16.174;2023-07-08T15:21:42;39.60;17.10
38860;DHT22;24609;48.316;16.174;2023-07-08T15:24:09;40.00;18.10
38860;DHT22;24609;48.316;16.174;2023-07-08T15:26:44;40.10;17.30
38860;DHT22;24609;48.316;16.174;2023-07-08T15:29:21;38.00;17.90
38860;DHT22;24609;48.316;16.174;2023-07-08T15:31:47;36.60;20.10
38860;DHT22;24609;48.316;16.174;2023-07-08T15:34:18;35.20;20.90
38860;DHT22;24609;48.316;16.174;2023-07-08T15:36:44;34.70;21.40
38860;DHT22;24609;48.316;16.174;2023-07-08T15:39:10;35.20;21.70
38860;DHT22;24609;48.316;16.174;2023-07-08T15:41:36;36.00;20.70
38860;DHT22;24609;48.316;16.174;2023-07-08T15:44:04;36.20;20.90
38860;DHT22;24609;48.316;16.174;2023-07-08T15:46:37;35.70;21.10
38860;DHT22;24609;48.316;16.174;2023-07-08T15:49:16;37.00;19.70
38860;DHT22;24609;48.316;16.174;2023-07-08T15:51:42;39.90;17.80
38860;DHT22;24609;48.316;16.174;2023-07-08T15:54:10;40.60;16.70
38860;DHT22;24609;48.316;16.174;2023-07-08T15:56:35;40.80;17.20
38860;DHT22;24609;48.316;16.174;2023-07-08T15:59:01;39.60;17.10
38860;DHT22;24609;48.316;16.174;2023-07-08T16:01:27;37.50;19.40
38860;DHT22;24609;48.316;16.174;2023-07-08T16:03:53;34.90;21.30
38860;DHT22;24609;48.316;16.174;2023-07-08T16:06:19;34.00;23.20
38860;DHT22;24609;48.316;16.174;2023-07-08T16:08:45;34.10;22.70
38860;DHT22;24609;48.316;16.174;2023-07-08T16:11:16;34.40;22.40
38860;DHT22;24609;48.316;16.174;2023-07-08T16:13:44;35.50;21.90
38860;DHT22;24609;48.316;16.174;2023-07-08T16:16:12;37.00;21.10
38860;DHT22;24609;48.316;16.174;2023-07-08T16:18:39;37.10;20.30
38860;DHT22;24609;48.316;16.174;2023-07-08T16:21:05;38.60;19.90
38860;DHT22;24609;48.316;16.174;2023-07-08T16:23:31;39.70;18.70
38860;DHT22;24609;48.316;16.174;2023-07-08T16:25:57;39.60;18.40
38860;DHT22;24609;48.316;16.174;2023-07-08T16:28:44;39.50;18.20
38860;DHT22;24609;48.316;16.174;2023-07-08T16:31:11;39.60;17.90
38860;DHT22;24609;48.316;16.174;2023-07-08T16:33:37;39.50;18.40